sensor_id;sensor_type;location;lat;lon;timestamp;P1;durP1;ratioP1;P2;durP2;ratioP2
46216;SDS011;47258;59.424;13.482;2023-09-19T00:00:05;24.05;;;21.20;;
46216;SDS011;47258;59.424;13.482;2023-09-19T00:02:33;25.63;;;20.83;;
46216;SDS011;47258;59.424;13.482;2023-09-19T00:05:01;28.40;;;22.17;;
46216;SDS011;47258;59.424;13.482;2023-09-19T00:07:30;27.00;;;20.40;;
46216;SDS011;47258;59.424;13.482;2023-09-19T00:09:57;27.83;;;22.02;;
46216;SDS011;47258;59.424;13.482;2023-09-19T00:12:24;26.38;;;21.67;;
46216;SDS011;47258;59.424;13.482;2023-09-19T00:14:52;29.50;;;21.35;;
46216;SDS011;47258;59.424;13.482;2023-09-19T00:17:19;30.25;;;21.38;;
46216;SDS011;47258;59.424;13.482;2023-09-19T00:19:47;25.92;;;20.98;;
46216;SDS011;47258;59.424;13.482;2023-09-19T00:24:44;30.30;;;21.27;;
46216;SDS011;47258;59.424;13.482;2023-09-19T00:27:11;29.65;;;21.73;;
46216;SDS011;47258;59.424;13.482;2023-09-19T00:29:38;30.15;;;21.13;;
46216;SDS011;47258;59.424;13.482;2023-09-19T00:32:08;22.67;;;20.23;;
46216;SDS011;47258;59.424;13.482;2023-09-19T00:34:35;24.13;;;20.38;;
46216;SDS011;47258;59.424;13.482;2023-09-19T00:37:02;27.65;;;20.88;;
46216;SDS011;47258;59.424;13.482;2023-09-19T00:39:29;28.38;;;20.60;;
46216;SDS011;47258;59.424;13.482;2023-09-19T00:41:56;24.77;;;20.33;;
46216;SDS011;47258;59.424;13.482;2023-09-19T00:44:29;32.17;;;21.27;;
46216;SDS011;47258;59.424;13.482;2023-09-19T00:46:56;26.25;;;20.10;;
46216;SDS011;47258;59.424;13.482;2023-09-19T00:49:25;28.13;;;20.45;;
46216;SDS011;47258;59.424;13.482;2023-09-19T00:51:53;23.60;;;18.80;;
46216;SDS011;47258;59.424;13.482;2023-09-19T00:54:21;28.73;;;20.52;;
46216;SDS011;47258;59.424;13.482;2023-09-19T00:56:48;33.72;;;21.52;;
46216;SDS011;47258;59.424;13.482;2023-09-19T00:59:16;30.20;;;20.05;;
46216;SDS011;47258;59.424;13.482;2023-09-19T01:01:43;23.77;;;19.80;;
46216;SDS011;47258;59.424;13.482;2023-09-19T01:04:11;30.80;;;20.52;;
46216;SDS011;47258;59.424;13.482;2023-09-19T01:06:40;30.88;;;20.92;;
46216;SDS011;47258;59.424;13.482;2023-09-19T01:09:07;26.75;;;21.27;;
46216;SDS011;47258;59.424;13.482;2023-09-19T01:11:35;31.02;;;23.42;;
46216;SDS011;47258;59.424;13.482;2023-09-19T01:14:10;30.10;;;22.92;;
46216;SDS011;47258;59.424;13.482;2023-09-19T01:16:47;28.33;;;20.98;;
46216;SDS011;47258;59.424;13.482;2023-09-19T01:22:25;26.38;;;21.75;;
46216;SDS011;47258;59.424;13.482;2023-09-19T01:25:07;26.73;;;21.20;;
46216;SDS011;47258;59.424;13.482;2023-09-19T01:28:03;24.15;;;20.67;;
46216;SDS011;47258;59.424;13.482;2023-09-19T01:30:42;31.40;;;22.92;;
46216;SDS011;47258;59.424;13.482;2023-09-19T01:33:10;36.15;;;25.27;;
46216;SDS011;47258;59.424;13.482;2023-09-19T01:35:37;35.03;;;23.67;;
46216;SDS011;47258;59.424;13.482;2023-09-19T01:38:05;29.55;;;21.70;;
46216;SDS011;47258;59.424;13.482;2023-09-19T01:40:35;33.40;;;23.27;;
46216;SDS011;47258;59.424;13.482;2023-09-19T01:43:11;27.90;;;23.15;;
46216;SDS011;47258;59.424;13.482;2023-09-19T01:45:51;25.70;;;21.17;;
46216;SDS011;47258;59.424;13.482;2023-09-19T01:48:27;28.98;;;23.13;;
46216;SDS011;47258;59.424;13.482;2023-09-19T01:51:05;38.33;;;23.80;;
46216;SDS011;47258;59.424;13.482;2023-09-19T01:53:35;39.85;;;24.23;;
46216;SDS011;47258;59.424;13.482;2023-09-19T01:56:07;44.55;;;24.10;;
46216;SDS011;47258;59.424;13.482;2023-09-19T01:58:39;49.72;;;26.23;;
46216;SDS011;47258;59.424;13.482;2023-09-19T02:01:15;24.40;;;21.25;;
46216;SDS011;47258;59.424;13.482;2023-09-19T02:03:45;28.40;;;21.77;;
46216;SDS011;47258;59.424;13.482;2023-09-19T02:06:13;30.55;;;23.23;;
46216;SDS011;47258;59.424;13.482;2023-09-19T02:08:41;30.38;;;22.70;;
46216;SDS011;47258;59.424;13.482;2023-09-19T02:11:07;33.92;;;22.85;;
46216;SDS011;47258;59.424;13.482;2023-09-19T02:13:35;28.25;;;22.38;;
46216;SDS011;47258;59.424;13.482;2023-09-19T02:16:02;33.03;;;22.83;;
46216;SDS011;47258;59.424;13.482;2023-09-19T02:18:33;36.40;;;22.00;;
46216;SDS011;47258;59.424;13.482;2023-09-19T02:21:00;27.50;;;20.90;;
46216;SDS011;47258;59.424;13.482;2023-09-19T02:23:29;27.65;;;22.38;;
46216;SDS011;47258;59.424;13.482;2023-09-19T02:25:56;27.45;;;22.77;;
46216;SDS011;47258;59.424;13.482;2023-09-19T02:28:25;29.75;;;23.10;;
46216;SDS011;47258;59.424;13.482;2023-09-19T02:33:21;26.33;;;23.00;;
46216;SDS011;47258;59.424;13.482;2023-09-19T02:35:50;28.52;;;21.83;;
46216;SDS011;47258;59.424;13.482;2023-09-19T02:38:22;27.45;;;21.05;;
46216;SDS011;47258;59.424;13.482;2023-09-19T02:40:51;31.23;;;22.83;;
46216;SDS011;47258;59.424;13.482;2023-09-19T02:43:20;34.25;;;22.92;;
46216;SDS011;47258;59.424;13.482;2023-09-19T02:45:47;32.50;;;21.42;;
46216;SDS011;47258;59.424;13.482;2023-09-19T02:48:14;30.13;;;22.27;;
46216;SDS011;47258;59.424;13.482;2023-09-19T02:50:41;31.33;;;21.73;;
46216;SDS011;47258;59.424;13.482;2023-09-19T02:53:10;31.17;;;20.90;;
46216;SDS011;47258;59.424;13.482;2023-09-19T02:55:38;28.50;;;23.27;;
46216;SDS011;47258;59.424;13.482;2023-09-19T02:58:06;38.65;;;23.30;;
46216;SDS011;47258;59.424;13.482;2023-09-19T03:00:36;33.85;;;22.35;;
46216;SDS011;47258;59.424;13.482;2023-09-19T03:03:03;30.38;;;22.88;;
46216;SDS011;47258;59.424;13.482;2023-09-19T03:05:33;28.67;;;23.17;;
46216;SDS011;47258;59.424;13.482;2023-09-19T03:08:00;29.20;;;22.65;;
46216;SDS011;47258;59.424;13.482;2023-09-19T03:10:29;39.53;;;24.13;;
46216;SDS011;47258;59.424;13.482;2023-09-19T03:12:56;35.05;;;24.98;;
46216;SDS011;47258;59.424;13.482;2023-09-19T03:15:24;33.83;;;25.02;;
46216;SDS011;47258;59.424;13.482;2023-09-19T03:17:51;35.17;;;25.42;;
46216;SDS011;47258;59.424;13.482;2023-09-19T03:20:19;37.28;;;24.77;;
46216;SDS011;47258;59.424;13.482;2023-09-19T03:22:46;33.65;;;24.10;;
46216;SDS011;47258;59.424;13.482;2023-09-19T03:25:14;30.70;;;24.40;;
46216;SDS011;47258;59.424;13.482;2023-09-19T03:27:43;33.92;;;25.48;;
46216;SDS011;47258;59.424;13.482;2023-09-19T03:30:11;30.23;;;22.92;;
46216;SDS011;47258;59.424;13.482;2023-09-19T03:32:43;31.98;;;23.75;;
46216;SDS011;47258;59.424;13.482;2023-09-19T03:35:11;47.25;;;25.50;;
46216;SDS011;47258;59.424;13.482;2023-09-19T03:37:39;33.38;;;24.27;;
46216;SDS011;47258;59.424;13.482;2023-09-19T03:40:07;38.95;;;25.90;;
46216;SDS011;47258;59.424;13.482;2023-09-19T03:42:37;38.78;;;26.63;;
46216;SDS011;47258;59.424;13.482;2023-09-19T03:45:07;36.47;;;25.00;;
46216;SDS011;47258;59.424;13.482;2023-09-19T03:47:37;40.08;;;25.67;;
46216;SDS011;47258;59.424;13.482;2023-09-19T03:50:04;36.40;;;26.40;;
46216;SDS011;47258;59.424;13.482;2023-09-19T03:52:33;39.53;;;28.23;;
46216;SDS011;47258;59.424;13.482;2023-09-19T03:55:00;34.88;;;26.73;;
46216;SDS011;47258;59.424;13.482;2023-09-19T03:57:29;34.63;;;25.42;;
46216;SDS011;47258;59.424;13.482;2023-09-19T03:59:56;32.97;;;24.92;;
46216;SDS011;47258;59.424;13.482;2023-09-19T04:02:25;32.58;;;25.52;;
46216;SDS011;47258;59.424;13.482;2023-09-19T04:04:58;30.48;;;23.48;;
46216;SDS011;47258;59.424;13.482;2023-09-19T04:07:25;34.60;;;23.95;;
46216;SDS011;47258;59.424;13.482;2023-09-19T04:09:54;35.10;;;26.37;;
46216;SDS011;47258;59.424;13.482;2023-09-19T04:12:21;47.97;;;27.08;;
46216;SDS011;47258;59.424;13.482;2023-09-19T04:14:48;38.53;;;26.42;;
46216;SDS011;47258;59.424;13.482;2023-09-19T04:17:15;41.97;;;26.55;;
46216;SDS011;47258;59.424;13.482;2023-09-19T04:19:45;37.83;;;26.00;;
46216;SDS011;47258;59.424;13.482;2023-09-19T04:22:12;45.30;;;28.15;;
46216;SDS011;47258;59.424;13.482;2023-09-19T04:24:39;38.58;;;25.40;;
46216;SDS011;47258;59.424;13.482;2023-09-19T04:27:06;48.05;;;25.88;;
46216;SDS011;47258;59.424;13.482;2023-09-19T04:29:34;31.07;;;24.50;;
46216;SDS011;47258;59.424;13.482;2023-09-19T04:32:03;37.25;;;25.08;;
46216;SDS011;47258;59.424;13.482;2023-09-19T04:34:31;32.03;;;25.88;;
46216;SDS011;47258;59.424;13.482;2023-09-19T04:37:00;43.60;;;26.63;;
46216;SDS011;47258;59.424;13.482;2023-09-19T04:39:28;37.40;;;24.25;;
46216;SDS011;47258;59.424;13.482;2023-09-19T04:41:55;30.33;;;24.42;;
46216;SDS011;47258;59.424;13.482;2023-09-19T04:44:23;34.78;;;24.75;;
46216;SDS011;47258;59.424;13.482;2023-09-19T04:46:50;36.75;;;24.90;;
46216;SDS011;47258;59.424;13.482;2023-09-19T04:49:17;42.40;;;24.90;;
46216;SDS011;47258;59.424;13.482;2023-09-19T04:51:44;34.42;;;24.52;;
46216;SDS011;47258;59.424;13.482;2023-09-19T04:54:13;30.35;;;22.92;;
46216;SDS011;47258;59.424;13.482;2023-09-19T04:56:41;34.40;;;23.73;;
46216;SDS011;47258;59.424;13.482;2023-09-19T04:59:07;35.22;;;24.70;;
46216;SDS011;47258;59.424;13.482;2023-09-19T05:01:35;39.35;;;23.33;;
46216;SDS011;47258;59.424;13.482;2023-09-19T05:04:02;28.50;;;22.25;;
46216;SDS011;47258;59.424;13.482;2023-09-19T05:06:30;32.10;;;24.30;;
46216;SDS011;47258;59.424;13.482;2023-09-19T05:09:00;34.63;;;24.20;;
46216;SDS011;47258;59.424;13.482;2023-09-19T05:11:31;29.45;;;23.20;;
46216;SDS011;47258;59.424;13.482;2023-09-19T05:13:59;32.20;;;22.77;;
46216;SDS011;47258;59.424;13.482;2023-09-19T05:18:56;30.13;;;22.33;;
46216;SDS011;47258;59.424;13.482;2023-09-19T05:21:25;32.05;;;22.90;;
46216;SDS011;47258;59.424;13.482;2023-09-19T05:23:53;33.63;;;22.57;;
46216;SDS011;47258;59.424;13.482;2023-09-19T05:26:20;32.55;;;24.25;;
46216;SDS011;47258;59.424;13.482;2023-09-19T05:28:49;31.80;;;23.42;;
46216;SDS011;47258;59.424;13.482;2023-09-19T05:31:16;32.42;;;24.77;;
46216;SDS011;47258;59.424;13.482;2023-09-19T05:33:43;33.13;;;22.13;;
46216;SDS011;47258;59.424;13.482;2023-09-19T05:36:09;29.83;;;19.85;;
46216;SDS011;47258;59.424;13.482;2023-09-19T05:38:37;23.27;;;19.05;;
46216;SDS011;47258;59.424;13.482;2023-09-19T05:41:05;23.42;;;18.92;;
46216;SDS011;47258;59.424;13.482;2023-09-19T05:43:33;25.88;;;17.42;;
46216;SDS011;47258;59.424;13.482;2023-09-19T05:46:03;24.20;;;18.83;;
46216;SDS011;47258;59.424;13.482;2023-09-19T05:48:30;28.10;;;18.85;;
46216;SDS011;47258;59.424;13.482;2023-09-19T05:50:57;21.95;;;18.58;;
46216;SDS011;47258;59.424;13.482;2023-09-19T05:53:26;22.95;;;18.05;;
46216;SDS011;47258;59.424;13.482;2023-09-19T05:55:53;24.67;;;17.92;;
46216;SDS011;47258;59.424;13.482;2023-09-19T05:58:20;22.00;;;17.63;;
46216;SDS011;47258;59.424;13.482;2023-09-19T06:00:47;21.02;;;17.17;;
46216;SDS011;47258;59.424;13.482;2023-09-19T06:03:16;24.48;;;18.73;;
46216;SDS011;47258;59.424;13.482;2023-09-19T06:05:45;23.48;;;16.60;;
46216;SDS011;47258;59.424;13.482;2023-09-19T06:08:14;21.77;;;18.38;;
46216;SDS011;47258;59.424;13.482;2023-09-19T06:10:41;18.67;;;16.40;;
46216;SDS011;47258;59.424;13.482;2023-09-19T06:13:08;21.50;;;17.08;;
46216;SDS011;47258;59.424;13.482;2023-09-19T06:15:35;19.23;;;16.27;;
46216;SDS011;47258;59.424;13.482;2023-09-19T06:18:03;22.98;;;17.90;;
46216;SDS011;47258;59.424;13.482;2023-09-19T06:20:32;20.98;;;17.33;;
46216;SDS011;47258;59.424;13.482;2023-09-19T06:22:59;23.40;;;17.52;;
46216;SDS011;47258;59.424;13.482;2023-09-19T06:25:27;24.25;;;17.77;;
46216;SDS011;47258;59.424;13.482;2023-09-19T06:27:54;23.13;;;16.95;;
46216;SDS011;47258;59.424;13.482;2023-09-19T06:30:21;19.42;;;17.15;;
46216;SDS011;47258;59.424;13.482;2023-09-19T06:32:55;24.15;;;16.98;;
46216;SDS011;47258;59.424;13.482;2023-09-19T06:35:22;20.40;;;15.80;;
46216;SDS011;47258;59.424;13.482;2023-09-19T06:37:52;23.95;;;17.25;;
46216;SDS011;47258;59.424;13.482;2023-09-19T06:40:19;21.77;;;16.30;;
46216;SDS011;47258;59.424;13.482;2023-09-19T06:42:46;16.98;;;14.93;;
46216;SDS011;47258;59.424;13.482;2023-09-19T06:45:16;19.70;;;15.90;;
46216;SDS011;47258;59.424;13.482;2023-09-19T06:47:43;18.35;;;15.60;;
46216;SDS011;47258;59.424;13.482;2023-09-19T06:50:11;17.75;;;14.32;;
46216;SDS011;47258;59.424;13.482;2023-09-19T06:52:39;17.02;;;15.30;;
46216;SDS011;47258;59.424;13.482;2023-09-19T06:55:08;22.83;;;14.85;;
46216;SDS011;47258;59.424;13.482;2023-09-19T06:57:37;19.15;;;14.68;;
46216;SDS011;47258;59.424;13.482;2023-09-19T07:00:06;15.02;;;12.85;;
46216;SDS011;47258;59.424;13.482;2023-09-19T07:02:40;15.27;;;11.63;;
46216;SDS011;47258;59.424;13.482;2023-09-19T07:05:07;12.57;;;11.27;;
46216;SDS011;47258;59.424;13.482;2023-09-19T07:07:34;18.67;;;11.88;;
46216;SDS011;47258;59.424;13.482;2023-09-19T07:10:01;13.77;;;10.73;;
46216;SDS011;47258;59.424;13.482;2023-09-19T07:12:32;16.20;;;8.90;;
46216;SDS011;47258;59.424;13.482;2023-09-19T07:14:59;9.50;;;8.48;;
46216;SDS011;47258;59.424;13.482;2023-09-19T07:17:25;13.18;;;9.60;;
46216;SDS011;47258;59.424;13.482;2023-09-19T07:19:54;11.88;;;9.02;;
46216;SDS011;47258;59.424;13.482;2023-09-19T07:22:22;13.70;;;9.10;;
46216;SDS011;47258;59.424;13.482;2023-09-19T07:24:49;9.20;;;8.10;;
46216;SDS011;47258;59.424;13.482;2023-09-19T07:27:15;12.55;;;8.38;;
46216;SDS011;47258;59.424;13.482;2023-09-19T07:29:44;9.57;;;7.40;;
46216;SDS011;47258;59.424;13.482;2023-09-19T07:32:11;12.90;;;6.90;;
46216;SDS011;47258;59.424;13.482;2023-09-19T07:34:39;8.90;;;6.63;;
46216;SDS011;47258;59.424;13.482;2023-09-19T07:37:06;11.88;;;6.45;;
46216;SDS011;47258;59.424;13.482;2023-09-19T07:39:33;7.53;;;5.60;;
46216;SDS011;47258;59.424;13.482;2023-09-19T07:42:00;11.15;;;5.63;;
46216;SDS011;47258;59.424;13.482;2023-09-19T07:44:27;7.32;;;5.03;;
46216;SDS011;47258;59.424;13.482;2023-09-19T07:46:55;8.57;;;5.55;;
46216;SDS011;47258;59.424;13.482;2023-09-19T07:49:22;18.48;;;5.63;;
46216;SDS011;47258;59.424;13.482;2023-09-19T07:51:49;8.18;;;4.93;;
46216;SDS011;47258;59.424;13.482;2023-09-19T07:54:17;11.07;;;5.13;;
46216;SDS011;47258;59.424;13.482;2023-09-19T07:56:45;6.55;;;3.35;;
46216;SDS011;47258;59.424;13.482;2023-09-19T07:59:12;5.30;;;2.88;;
46216;SDS011;47258;59.424;13.482;2023-09-19T08:01:39;5.68;;;2.35;;
46216;SDS011;47258;59.424;13.482;2023-09-19T08:04:09;3.38;;;2.28;;
46216;SDS011;47258;59.424;13.482;2023-09-19T08:06:36;6.60;;;2.17;;
46216;SDS011;47258;59.424;13.482;2023-09-19T08:09:04;4.85;;;1.42;;
46216;SDS011;47258;59.424;13.482;2023-09-19T08:11:32;2.47;;;1.88;;
46216;SDS011;47258;59.424;13.482;2023-09-19T08:13:59;3.65;;;1.85;;
46216;SDS011;47258;59.424;13.482;2023-09-19T08:16:26;2.67;;;2.05;;
46216;SDS011;47258;59.424;13.482;2023-09-19T08:18:53;6.45;;;1.73;;
46216;SDS011;47258;59.424;13.482;2023-09-19T08:21:22;6.68;;;2.08;;
46216;SDS011;47258;59.424;13.482;2023-09-19T08:23:50;3.00;;;1.08;;
46216;SDS011;47258;59.424;13.482;2023-09-19T08:26:17;9.55;;;3.10;;
46216;SDS011;47258;59.424;13.482;2023-09-19T08:28:45;5.05;;;1.58;;
46216;SDS011;47258;59.424;13.482;2023-09-19T08:31:13;5.57;;;1.10;;
46216;SDS011;47258;59.424;13.482;2023-09-19T08:33:42;5.67;;;1.50;;
46216;SDS011;47258;59.424;13.482;2023-09-19T08:36:10;7.82;;;1.67;;
46216;SDS011;47258;59.424;13.482;2023-09-19T08:41:08;5.72;;;2.10;;
46216;SDS011;47258;59.424;13.482;2023-09-19T08:43:35;3.75;;;1.00;;
46216;SDS011;47258;59.424;13.482;2023-09-19T08:46:03;2.65;;;1.13;;
46216;SDS011;47258;59.424;13.482;2023-09-19T08:48:36;4.07;;;0.93;;
46216;SDS011;47258;59.424;13.482;2023-09-19T08:51:12;2.53;;;0.82;;
46216;SDS011;47258;59.424;13.482;2023-09-19T08:53:47;4.68;;;1.25;;
46216;SDS011;47258;59.424;13.482;2023-09-19T08:56:18;3.05;;;0.88;;
46216;SDS011;47258;59.424;13.482;2023-09-19T08:58:48;1.33;;;0.80;;
46216;SDS011;47258;59.424;13.482;2023-09-19T09:01:18;2.25;;;0.70;;
46216;SDS011;47258;59.424;13.482;2023-09-19T09:03:49;1.35;;;0.65;;
46216;SDS011;47258;59.424;13.482;2023-09-19T09:06:17;3.03;;;1.15;;
46216;SDS011;47258;59.424;13.482;2023-09-19T09:08:47;2.20;;;0.52;;
46216;SDS011;47258;59.424;13.482;2023-09-19T09:11:16;1.65;;;0.68;;
46216;SDS011;47258;59.424;13.482;2023-09-19T09:13:44;1.85;;;0.70;;
46216;SDS011;47258;59.424;13.482;2023-09-19T09:16:11;2.78;;;0.88;;
46216;SDS011;47258;59.424;13.482;2023-09-19T09:18:38;3.50;;;0.85;;
46216;SDS011;47258;59.424;13.482;2023-09-19T09:21:06;5.50;;;1.33;;
46216;SDS011;47258;59.424;13.482;2023-09-19T09:23:33;3.70;;;0.73;;
46216;SDS011;47258;59.424;13.482;2023-09-19T09:26:01;2.30;;;1.00;;
46216;SDS011;47258;59.424;13.482;2023-09-19T09:28:30;1.95;;;1.05;;
46216;SDS011;47258;59.424;13.482;2023-09-19T09:31:00;3.55;;;0.88;;
46216;SDS011;47258;59.424;13.482;2023-09-19T09:33:33;1.38;;;0.70;;
46216;SDS011;47258;59.424;13.482;2023-09-19T09:36:00;2.67;;;1.05;;
46216;SDS011;47258;59.424;13.482;2023-09-19T09:38:28;0.80;;;0.50;;
46216;SDS011;47258;59.424;13.482;2023-09-19T09:40:58;4.55;;;1.13;;
46216;SDS011;47258;59.424;13.482;2023-09-19T09:43:30;2.05;;;0.93;;
46216;SDS011;47258;59.424;13.482;2023-09-19T09:46:10;3.35;;;0.68;;
46216;SDS011;47258;59.424;13.482;2023-09-19T09:48:56;1.92;;;0.85;;
46216;SDS011;47258;59.424;13.482;2023-09-19T09:51:37;3.35;;;0.60;;
46216;SDS011;47258;59.424;13.482;2023-09-19T09:54:11;2.08;;;0.70;;
46216;SDS011;47258;59.424;13.482;2023-09-19T09:56:51;3.42;;;0.65;;
46216;SDS011;47258;59.424;13.482;2023-09-19T09:59:20;4.88;;;0.65;;
46216;SDS011;47258;59.424;13.482;2023-09-19T10:01:49;2.90;;;0.90;;
46216;SDS011;47258;59.424;13.482;2023-09-19T10:06:54;3.03;;;0.75;;
46216;SDS011;47258;59.424;13.482;2023-09-19T10:09:22;3.80;;;1.05;;
46216;SDS011;47258;59.424;13.482;2023-09-19T10:12:03;3.33;;;1.02;;
46216;SDS011;47258;59.424;13.482;2023-09-19T10:14:35;5.05;;;1.00;;
46216;SDS011;47258;59.424;13.482;2023-09-19T10:17:04;3.22;;;0.98;;
46216;SDS011;47258;59.424;13.482;2023-09-19T10:19:36;2.03;;;1.05;;
46216;SDS011;47258;59.424;13.482;2023-09-19T10:22:10;3.88;;;1.33;;
46216;SDS011;47258;59.424;13.482;2023-09-19T10:24:39;2.03;;;1.20;;
46216;SDS011;47258;59.424;13.482;2023-09-19T10:27:07;9.35;;;1.58;;
46216;SDS011;47258;59.424;13.482;2023-09-19T10:29:36;4.78;;;1.00;;
46216;SDS011;47258;59.424;13.482;2023-09-19T10:32:05;2.90;;;1.30;;
46216;SDS011;47258;59.424;13.482;2023-09-19T10:34:34;8.98;;;2.10;;
46216;SDS011;47258;59.424;13.482;2023-09-19T10:37:02;6.30;;;1.70;;
46216;SDS011;47258;59.424;13.482;2023-09-19T10:39:34;10.55;;;1.70;;
46216;SDS011;47258;59.424;13.482;2023-09-19T10:42:05;5.60;;;1.25;;
46216;SDS011;47258;59.424;13.482;2023-09-19T10:44:34;8.52;;;2.15;;
46216;SDS011;47258;59.424;13.482;2023-09-19T10:47:08;10.32;;;2.67;;
46216;SDS011;47258;59.424;13.482;2023-09-19T10:49:42;8.63;;;2.20;;
46216;SDS011;47258;59.424;13.482;2023-09-19T10:52:11;5.53;;;1.63;;
46216;SDS011;47258;59.424;13.482;2023-09-19T10:54:44;9.40;;;2.70;;
46216;SDS011;47258;59.424;13.482;2023-09-19T10:57:18;8.77;;;2.45;;
46216;SDS011;47258;59.424;13.482;2023-09-19T11:00:02;5.90;;;1.50;;
46216;SDS011;47258;59.424;13.482;2023-09-19T11:05:59;6.07;;;2.10;;
46216;SDS011;47258;59.424;13.482;2023-09-19T11:11:39;3.75;;;1.60;;
46216;SDS011;47258;59.424;13.482;2023-09-19T11:14:16;3.55;;;1.30;;
46216;SDS011;47258;59.424;13.482;2023-09-19T11:20:19;4.88;;;1.35;;
46216;SDS011;47258;59.424;13.482;2023-09-19T11:23:21;6.63;;;1.55;;
46216;SDS011;47258;59.424;13.482;2023-09-19T11:25:51;6.88;;;1.67;;
46216;SDS011;47258;59.424;13.482;2023-09-19T11:28:29;5.07;;;0.95;;
46216;SDS011;47258;59.424;13.482;2023-09-19T11:30:57;6.20;;;2.22;;
46216;SDS011;47258;59.424;13.482;2023-09-19T11:33:26;7.05;;;1.70;;
46216;SDS011;47258;59.424;13.482;2023-09-19T11:35:58;6.47;;;1.80;;
46216;SDS011;47258;59.424;13.482;2023-09-19T11:41:37;6.00;;;1.92;;
46216;SDS011;47258;59.424;13.482;2023-09-19T11:47:04;7.00;;;2.17;;
46216;SDS011;47258;59.424;13.482;2023-09-19T11:49:35;5.15;;;1.92;;
46216;SDS011;47258;59.424;13.482;2023-09-19T11:52:07;2.83;;;1.50;;
46216;SDS011;47258;59.424;13.482;2023-09-19T11:54:35;3.40;;;1.85;;
46216;SDS011;47258;59.424;13.482;2023-09-19T11:57:06;4.43;;;2.03;;
46216;SDS011;47258;59.424;13.482;2023-09-19T11:59:38;15.52;;;1.75;;
46216;SDS011;47258;59.424;13.482;2023-09-19T12:02:06;5.90;;;2.10;;
46216;SDS011;47258;59.424;13.482;2023-09-19T12:04:37;5.28;;;1.35;;
46216;SDS011;47258;59.424;13.482;2023-09-19T12:07:06;3.22;;;1.10;;
46216;SDS011;47258;59.424;13.482;2023-09-19T12:09:40;3.67;;;1.08;;
46216;SDS011;47258;59.424;13.482;2023-09-19T12:12:09;4.45;;;1.30;;
46216;SDS011;47258;59.424;13.482;2023-09-19T12:14:38;2.83;;;1.38;;
46216;SDS011;47258;59.424;13.482;2023-09-19T12:17:08;5.13;;;1.88;;
46216;SDS011;47258;59.424;13.482;2023-09-19T12:19:36;7.45;;;1.65;;
46216;SDS011;47258;59.424;13.482;2023-09-19T12:22:03;7.70;;;1.50;;
46216;SDS011;47258;59.424;13.482;2023-09-19T12:24:31;4.40;;;1.20;;
46216;SDS011;47258;59.424;13.482;2023-09-19T12:27:00;1.52;;;0.98;;
46216;SDS011;47258;59.424;13.482;2023-09-19T12:29:29;3.97;;;1.52;;
46216;SDS011;47258;59.424;13.482;2023-09-19T12:31:58;8.23;;;1.40;;
46216;SDS011;47258;59.424;13.482;2023-09-19T12:34:29;1.55;;;1.25;;
46216;SDS011;47258;59.424;13.482;2023-09-19T12:37:07;4.32;;;1.38;;
46216;SDS011;47258;59.424;13.482;2023-09-19T12:39:41;4.72;;;1.55;;
46216;SDS011;47258;59.424;13.482;2023-09-19T12:42:14;8.55;;;1.95;;
46216;SDS011;47258;59.424;13.482;2023-09-19T12:44:42;3.65;;;1.70;;
46216;SDS011;47258;59.424;13.482;2023-09-19T12:47:11;2.45;;;1.17;;
46216;SDS011;47258;59.424;13.482;2023-09-19T12:52:39;5.55;;;1.70;;
46216;SDS011;47258;59.424;13.482;2023-09-19T12:57:54;5.72;;;1.45;;
46216;SDS011;47258;59.424;13.482;2023-09-19T13:00:31;4.63;;;1.33;;
46216;SDS011;47258;59.424;13.482;2023-09-19T13:03:12;4.05;;;1.02;;
46216;SDS011;47258;59.424;13.482;2023-09-19T13:05:53;5.30;;;1.75;;
46216;SDS011;47258;59.424;13.482;2023-09-19T13:08:27;1.95;;;1.10;;
46216;SDS011;47258;59.424;13.482;2023-09-19T13:11:01;7.20;;;1.75;;
46216;SDS011;47258;59.424;13.482;2023-09-19T13:13:31;6.50;;;1.60;;
46216;SDS011;47258;59.424;13.482;2023-09-19T13:16:00;3.15;;;1.00;;
46216;SDS011;47258;59.424;13.482;2023-09-19T13:18:29;2.80;;;1.40;;
46216;SDS011;47258;59.424;13.482;2023-09-19T13:21:07;1.98;;;1.17;;
46216;SDS011;47258;59.424;13.482;2023-09-19T13:23:38;7.93;;;2.13;;
46216;SDS011;47258;59.424;13.482;2023-09-19T13:26:05;6.60;;;1.48;;
46216;SDS011;47258;59.424;13.482;2023-09-19T13:28:33;9.20;;;1.15;;
46216;SDS011;47258;59.424;13.482;2023-09-19T13:31:01;2.63;;;1.52;;
46216;SDS011;47258;59.424;13.482;2023-09-19T13:33:28;2.67;;;1.35;;
46216;SDS011;47258;59.424;13.482;2023-09-19T13:35:55;5.15;;;2.05;;
46216;SDS011;47258;59.424;13.482;2023-09-19T13:38:23;2.47;;;1.23;;
46216;SDS011;47258;59.424;13.482;2023-09-19T13:40:51;6.03;;;1.60;;
46216;SDS011;47258;59.424;13.482;2023-09-19T13:43:18;9.52;;;1.52;;
46216;SDS011;47258;59.424;13.482;2023-09-19T13:45:47;5.28;;;1.65;;
46216;SDS011;47258;59.424;13.482;2023-09-19T13:48:15;7.25;;;1.17;;
46216;SDS011;47258;59.424;13.482;2023-09-19T13:50:47;4.47;;;1.10;;
46216;SDS011;47258;59.424;13.482;2023-09-19T13:53:15;5.22;;;0.90;;
46216;SDS011;47258;59.424;13.482;2023-09-19T13:55:43;1.95;;;0.88;;
46216;SDS011;47258;59.424;13.482;2023-09-19T13:58:11;5.53;;;1.63;;
46216;SDS011;47258;59.424;13.482;2023-09-19T14:00:38;4.72;;;1.25;;
46216;SDS011;47258;59.424;13.482;2023-09-19T14:03:05;9.45;;;1.77;;
46216;SDS011;47258;59.424;13.482;2023-09-19T14:05:32;8.82;;;1.35;;
46216;SDS011;47258;59.424;13.482;2023-09-19T14:07:59;4.10;;;1.20;;
46216;SDS011;47258;59.424;13.482;2023-09-19T14:10:28;7.50;;;1.10;;
46216;SDS011;47258;59.424;13.482;2023-09-19T14:12:56;7.00;;;0.85;;
46216;SDS011;47258;59.424;13.482;2023-09-19T14:15:26;4.20;;;1.30;;
46216;SDS011;47258;59.424;13.482;2023-09-19T14:17:55;7.30;;;1.65;;
46216;SDS011;47258;59.424;13.482;2023-09-19T14:20:24;9.17;;;1.47;;
46216;SDS011;47258;59.424;13.482;2023-09-19T14:22:51;4.40;;;0.85;;
46216;SDS011;47258;59.424;13.482;2023-09-19T14:25:18;6.30;;;1.88;;
46216;SDS011;47258;59.424;13.482;2023-09-19T14:27:46;3.35;;;1.38;;
46216;SDS011;47258;59.424;13.482;2023-09-19T14:30:13;5.75;;;1.42;;
46216;SDS011;47258;59.424;13.482;2023-09-19T14:32:42;4.53;;;1.23;;
46216;SDS011;47258;59.424;13.482;2023-09-19T14:35:09;5.85;;;1.48;;
46216;SDS011;47258;59.424;13.482;2023-09-19T14:37:39;3.85;;;2.10;;
46216;SDS011;47258;59.424;13.482;2023-09-19T14:40:06;6.60;;;1.40;;
46216;SDS011;47258;59.424;13.482;2023-09-19T14:42:35;8.02;;;1.75;;
46216;SDS011;47258;59.424;13.482;2023-09-19T14:47:32;5.25;;;1.77;;
46216;SDS011;47258;59.424;13.482;2023-09-19T14:50:01;3.13;;;1.13;;
46216;SDS011;47258;59.424;13.482;2023-09-19T14:52:31;6.40;;;2.40;;
46216;SDS011;47258;59.424;13.482;2023-09-19T14:54:58;7.78;;;2.15;;
46216;SDS011;47258;59.424;13.482;2023-09-19T14:57:26;5.95;;;1.75;;
46216;SDS011;47258;59.424;13.482;2023-09-19T14:59:54;7.55;;;2.45;;
46216;SDS011;47258;59.424;13.482;2023-09-19T15:02:21;10.30;;;1.40;;
46216;SDS011;47258;59.424;13.482;2023-09-19T15:04:48;5.07;;;1.40;;
46216;SDS011;47258;59.424;13.482;2023-09-19T15:07:17;7.47;;;1.92;;
46216;SDS011;47258;59.424;13.482;2023-09-19T15:09:44;3.50;;;1.52;;
46216;SDS011;47258;59.424;13.482;2023-09-19T15:12:12;14.30;;;1.67;;